Weather History for Duluth Sky Harbor, MN

Change the Weather History Date:

Wednesday, December 5, 2012

  Actual Average Record
Temperature  
Mean Temperature 26 °F -  
Max Temperature 37 °F 29 °F 48 °F (1960)
Min Temperature 14 °F 11 °F -11 °F (1955)
Degree Days  
Heating Degree Days 40    
Moisture  
Dew Point 15 °F    
Average Humidity 67    
Maximum Humidity 86    
Minimum Humidity 48    
Precipitation  
Precipitation 0.00 in - - ()
Sea Level Pressure  
Sea Level Pressure 30.22 in    
Wind  
Wind Speed 6 mph (South)    
Max Wind Speed 13 mph    
Max Gust Speed 18 mph    
Visibility 10 miles    
Events      
Averages and records for this station are not official NWS values.
T = Trace of Precipitation, MM = Missing Value Source: NWS Daily Summary

Daily Weather History Graph

Daily Weather History Graph

Search for Another Location

Airport:

Trip Planner

Search our weather history database for the weather conditions in past years. The results will help you decide how hot, cold, wet, or windy it might be!

Date:

Astronomy

Dec. 05, 2012 Rise Set
Actual Time 7:37 AM CST 4:20 PM CST
Civil Twilight 7:02 AM CST 4:55 PM CST
Nautical Twilight 6:24 AM CST 5:33 PM CST
Astronomical Twilight 5:47 AM CST 6:10 PM CST
Moon 11:29 PM CST (12/5) 11:44 AM CST (12/5)
Length of Visible Light 9h 52m
Length of Day
8h 43m
Waning Gibbous, 59% of the Moon is Illuminated
Dec 5
Waning Gibbous
Dec 6
Last Quarter
Dec 13
New
Dec 19
First Quarter
Dec 28
Full

Hourly Weather History & Observations

Time (CST) Temp. Windchill Dew Point Humidity Pressure Visibility Wind Dir Wind Speed Gust Speed Precip Events Conditions
12:13 AM 19.4 °F 10.4 °F 12.2 °F 74% 30.42 in 10.0 mi WSW 6.9 mph - N/A   Clear
12:33 AM 21.2 °F 16.4 °F 12.2 °F 68% 30.41 in 10.0 mi West 3.5 mph - N/A   Clear
12:54 AM 19.4 °F 11.5 °F 12.2 °F 74% 30.41 in 10.0 mi SW 5.8 mph - N/A   Clear
1:13 AM 17.6 °F 8.2 °F 12.2 °F 79% 30.41 in 10.0 mi WSW 6.9 mph - N/A   Clear
1:54 AM 15.8 °F 6.1 °F 12.2 °F 86% 30.41 in 10.0 mi SSW 6.9 mph - N/A   Clear
2:13 AM 15.8 °F 5.1 °F 10.4 °F 79% 30.42 in 10.0 mi SW 8.1 mph - N/A   Clear
2:34 AM 15.8 °F 7.2 °F 10.4 °F 79% 30.42 in 10.0 mi SW 5.8 mph - N/A   Clear
2:54 AM 15.8 °F 8.6 °F 12.2 °F 86% 30.41 in 10.0 mi SSW 4.6 mph - N/A   Clear
3:13 AM 15.8 °F 8.6 °F 10.4 °F 79% 30.42 in 10.0 mi SSW 4.6 mph - N/A   Clear
3:34 AM 15.8 °F 5.1 °F 10.4 °F 79% 30.42 in 10.0 mi SSW 8.1 mph - N/A   Scattered Clouds
3:54 AM 15.8 °F 6.1 °F 10.4 °F 79% 30.42 in 10.0 mi SW 6.9 mph - N/A   Scattered Clouds
4:13 AM 15.8 °F 8.6 °F 10.4 °F 79% 30.42 in 10.0 mi SSW 4.6 mph - N/A   Scattered Clouds
4:34 AM 15.8 °F 8.6 °F 10.4 °F 79% 30.42 in 10.0 mi SSW 4.6 mph - N/A   Scattered Clouds
4:53 AM 15.8 °F 7.2 °F 10.4 °F 79% 30.42 in 10.0 mi SSW 5.8 mph - N/A   Clear
5:13 AM 14.0 °F 6.5 °F 10.4 °F 86% 30.42 in 10.0 mi South 4.6 mph - N/A   Clear
5:34 AM 14.0 °F 6.5 °F 10.4 °F 86% 30.41 in 10.0 mi SSW 4.6 mph - N/A   Clear
5:53 AM 14.0 °F 8.2 °F 10.4 °F 86% 30.41 in 10.0 mi SSW 3.5 mph - N/A   Clear
6:13 AM 15.8 °F 7.2 °F 10.4 °F 79% 30.41 in 10.0 mi SSW 5.8 mph - N/A   Clear
6:34 AM 15.8 °F 10.2 °F 10.4 °F 79% 30.41 in 10.0 mi SSW 3.5 mph - N/A   Clear
6:53 AM 14.0 °F 8.2 °F 10.4 °F 86% 30.40 in 10.0 mi SSW 3.5 mph - N/A   Clear
8:34 AM 15.8 °F 10.2 °F 10.4 °F 79% 30.41 in 10.0 mi SW 3.5 mph - N/A   Clear
8:53 AM 15.8 °F - 10.4 °F 79% 30.41 in 10.0 mi Calm Calm - N/A   Clear
9:14 AM 17.6 °F - 12.2 °F 79% 30.40 in 10.0 mi Calm Calm - N/A   Clear
9:34 AM 17.6 °F - 12.2 °F 79% 30.41 in 10.0 mi Calm Calm - N/A   Clear
9:53 AM 19.4 °F - 12.2 °F 74% 30.40 in 10.0 mi Calm Calm - N/A   Clear
10:14 AM 19.4 °F - 12.2 °F 74% 30.39 in 10.0 mi Calm Calm - N/A   Clear
10:34 AM 21.2 °F - 14.0 °F 74% 30.38 in 10.0 mi Calm Calm - N/A   Clear
10:53 AM 21.2 °F - 15.8 °F 80% 30.37 in 10.0 mi Calm Calm - N/A   Clear
11:14 AM 23.0 °F - 15.8 °F 74% 30.35 in 10.0 mi Calm Calm - N/A   Clear
11:34 AM 24.8 °F - 17.6 °F 74% 30.33 in 10.0 mi Calm Calm - N/A   Clear
11:53 AM 26.6 °F - 17.6 °F 69% 30.31 in 10.0 mi Calm Calm - N/A   Clear
12:14 PM 28.4 °F 18.0 °F 15.8 °F 59% 30.30 in 10.0 mi South 12.7 mph - N/A   Clear
12:34 PM 28.4 °F 19.1 °F 17.6 °F 64% 30.28 in 10.0 mi SSE 10.4 mph - N/A   Clear
12:53 PM 28.4 °F 20.4 °F 17.6 °F 64% 30.27 in 10.0 mi SE 8.1 mph - N/A   Clear
1:14 PM 28.4 °F 22.2 °F 17.6 °F 64% 30.25 in 10.0 mi SSE 5.8 mph - N/A   Clear
1:34 PM 28.4 °F 22.2 °F 17.6 °F 64% 30.23 in 10.0 mi SE 5.8 mph - N/A   Clear
1:53 PM 30.2 °F 25.4 °F 17.6 °F 60% 30.22 in 10.0 mi SE 4.6 mph - N/A   Clear
2:14 PM 30.2 °F 23.4 °F 15.8 °F 55% 30.20 in 10.0 mi SE 6.9 mph - N/A   Clear
2:34 PM 30.2 °F 24.3 °F 17.6 °F 60% 30.18 in 10.0 mi SE 5.8 mph - N/A   Clear
2:53 PM 30.2 °F 24.3 °F 17.6 °F 60% 30.17 in 10.0 mi ESE 5.8 mph - N/A   Clear
3:14 PM 30.2 °F 24.3 °F 17.6 °F 60% 30.16 in 10.0 mi ESE 5.8 mph - N/A   Clear
3:33 PM 30.2 °F 24.3 °F 17.6 °F 60% 30.14 in 10.0 mi ESE 5.8 mph - N/A   Scattered Clouds
3:54 PM 32.0 °F 24.8 °F 17.6 °F 55% 30.13 in 10.0 mi ESE 8.1 mph - N/A   Overcast
4:14 PM 32.0 °F 24.8 °F 17.6 °F 55% 30.12 in 10.0 mi ESE 8.1 mph - N/A   Overcast
4:33 PM 32.0 °F 23.6 °F 17.6 °F 55% 30.11 in 10.0 mi ESE 10.4 mph - N/A   Overcast
4:54 PM 32.0 °F 24.2 °F 19.4 °F 60% 30.09 in 10.0 mi East 9.2 mph - N/A   Mostly Cloudy
5:14 PM 32.0 °F 23.0 °F 19.4 °F 60% 30.07 in 10.0 mi East 11.5 mph - N/A   Overcast
5:33 PM 33.8 °F 25.3 °F 19.4 °F 56% 30.06 in 10.0 mi East 11.5 mph - N/A   Mostly Cloudy
6:14 PM 33.8 °F 26.4 °F 19.4 °F 56% 30.03 in 10.0 mi East 9.2 mph - N/A   Scattered Clouds
6:33 PM 33.8 °F 26.4 °F 19.4 °F 56% 30.02 in 10.0 mi East 9.2 mph - N/A   Clear
6:54 PM 33.8 °F 28.6 °F 19.4 °F 56% 30.01 in 10.0 mi ESE 5.8 mph - N/A   Mostly Cloudy
7:14 PM 33.8 °F 28.6 °F 17.6 °F 52% 29.98 in 10.0 mi ESE 5.8 mph - N/A   Mostly Cloudy
7:33 PM 33.8 °F 29.6 °F 17.6 °F 52% 29.97 in 10.0 mi SE 4.6 mph - N/A   Clear
7:54 PM 33.8 °F 29.6 °F 17.6 °F 52% 29.96 in 10.0 mi SE 4.6 mph - N/A   Clear
8:13 PM 33.8 °F 28.6 °F 17.6 °F 52% 29.96 in 10.0 mi SE 5.8 mph - N/A   Scattered Clouds
8:34 PM 33.8 °F - 17.6 °F 52% 29.96 in 10.0 mi Calm Calm - N/A   Scattered Clouds
8:53 PM 33.8 °F 30.8 °F 17.6 °F 52% 29.95 in 10.0 mi SSE 3.5 mph - N/A   Mostly Cloudy
9:14 PM 33.8 °F 29.6 °F 17.6 °F 52% 29.94 in 10.0 mi SSE 4.6 mph - N/A   Scattered Clouds
9:33 PM 33.8 °F 29.6 °F 19.4 °F 56% 29.93 in 10.0 mi South 4.6 mph - N/A   Mostly Cloudy
9:54 PM 35.6 °F 30.7 °F 19.4 °F 52% 29.91 in 10.0 mi South 5.8 mph - N/A   Overcast
10:13 PM 35.6 °F 29.2 °F 19.4 °F 52% 29.90 in 10.0 mi South 8.1 mph - N/A   Overcast
10:33 PM 35.6 °F 28.6 °F 19.4 °F 52% 29.89 in 10.0 mi South 9.2 mph - N/A   Overcast
10:54 PM 35.6 °F 29.2 °F 19.4 °F 52% 29.87 in 10.0 mi South 8.1 mph - N/A   Overcast
11:13 PM 35.6 °F 28.0 °F 19.4 °F 52% 29.87 in 10.0 mi SSW 10.4 mph 17.3 mph N/A   Overcast
11:33 PM 37.4 °F 29.3 °F 19.4 °F 48% 29.86 in 10.0 mi SSW 12.7 mph 18.4 mph N/A   Overcast
11:54 PM 37.4 °F 30.3 °F 19.4 °F 48% 29.85 in 10.0 mi SSW 10.4 mph 17.3 mph N/A   Overcast